Time;durP1;ratioP1;P1;durP2;ratioP2;P2;SDS_P1;SDS_P2;PMS_P1;PMS_P2;Temp;Humidity;BMP_temperature;BMP_pressure;BME280_temperature;BME280_humidity;BME280_pressure;Samples;Min_cycle;Max_cycle;Signal;HPM_P1;HPM_P2
2022/06/04 00:00:11;;;;;;;2.20;2.10;;;;;;;;;;5052850;28;20542;-65
2022/06/04 00:02:39;;;;;;;4.70;2.00;;;;;;;;;;5052846;28;20448;-65
2022/06/04 00:05:06;;;;;;;2.00;1.90;;;;;;;;;;5052737;28;20463;-65
2022/06/04 00:07:33;;;;;;;2.10;2.00;;;;;;;;;;5052566;28;20909;-65
2022/06/04 00:15:32;;;;;;;1.80;1.70;;;;;;;;;;5056976;28;20494;-64
2022/06/04 00:18:00;;;;;;;1.70;1.60;;;;;;;;;;5056592;28;20526;-64
2022/06/04 00:20:27;;;;;;;2.37;2.17;;;;;;;;;;5056724;28;21010;-65
2022/06/04 00:22:58;;;;;;;1.90;1.80;;;;;;;;;;5056681;28;20558;-65
2022/06/04 00:25:25;;;;;;;2.17;2.07;;;;;;;;;;5056669;28;20540;-65
2022/06/04 00:27:53;;;;;;;1.90;1.80;;;;;;;;;;5056428;28;21073;-65
2022/06/04 00:30:20;;;;;;;1.73;1.63;;;;;;;;;;5056425;28;20545;-65
2022/06/04 00:32:48;;;;;;;2.00;1.90;;;;;;;;;;5056270;28;20495;-65
2022/06/04 00:35:15;;;;;;;2.00;1.90;;;;;;;;;;5056472;28;20447;-65
2022/06/04 00:37:42;;;;;;;1.87;1.77;;;;;;;;;;5056097;28;20997;-65
2022/06/04 00:40:09;;;;;;;2.87;2.00;;;;;;;;;;5056246;28;20548;-65
2022/06/04 00:42:36;;;;;;;2.03;1.93;;;;;;;;;;5056149;28;20557;-65
2022/06/04 00:45:22;;;;;;;1.50;1.40;;;;;;;;;;5056134;28;20472;-64
2022/06/04 00:47:51;;;;;;;2.17;1.73;;;;;;;;;;5056147;28;20480;-64
2022/06/04 00:50:19;;;;;;;2.00;1.90;;;;;;;;;;5056126;28;20452;-65
2022/06/04 00:52:47;;;;;;;2.20;2.10;;;;;;;;;;5056014;28;20448;-65
2022/06/04 00:55:14;;;;;;;2.17;1.97;;;;;;;;;;5055845;28;20868;-65
2022/06/04 00:57:56;;;;;;;2.20;1.93;;;;;;;;;;5055766;28;20456;-64
2022/06/04 01:00:25;;;;;;;1.90;1.70;;;;;;;;;;5055931;28;20448;-65
2022/06/04 01:03:02;;;;;;;1.87;1.77;;;;;;;;;;5055761;28;20448;-65
2022/06/04 01:05:31;;;;;;;1.90;1.80;;;;;;;;;;5055707;28;20501;-65
2022/06/04 01:08:13;;;;;;;3.23;1.77;;;;;;;;;;5055453;28;20512;-65
2022/06/04 01:10:48;;;;;;;1.80;1.70;;;;;;;;;;5055662;28;20448;-65
2022/06/04 01:13:24;;;;;;;2.33;2.13;;;;;;;;;;5055632;28;20543;-65
2022/06/04 01:15:57;;;;;;;3.43;2.30;;;;;;;;;;5055526;28;20558;-65
2022/06/04 01:18:41;;;;;;;2.50;2.30;;;;;;;;;;5055355;28;20458;-65
2022/06/04 01:21:10;;;;;;;2.27;2.07;;;;;;;;;;5054783;28;20448;-65
2022/06/04 01:23:52;;;;;;;2.60;1.93;;;;;;;;;;5055639;28;20444;-65
2022/06/04 01:26:31;;;;;;;3.90;2.13;;;;;;;;;;5055299;28;20539;-65
2022/06/04 01:29:01;;;;;;;2.63;2.00;;;;;;;;;;5055098;28;20480;-65
2022/06/04 01:31:31;;;;;;;3.00;2.10;;;;;;;;;;5055089;28;21010;-65
2022/06/04 01:34:00;;;;;;;2.23;2.03;;;;;;;;;;5055193;28;20536;-65
2022/06/04 01:36:32;;;;;;;4.03;2.10;;;;;;;;;;5055166;28;20454;-65
2022/06/04 01:39:01;;;;;;;2.30;2.20;;;;;;;;;;5055120;28;20456;-65
2022/06/04 01:41:30;;;;;;;2.50;2.00;;;;;;;;;;5054880;28;20578;-65
2022/06/04 01:44:00;;;;;;;2.20;2.10;;;;;;;;;;5054976;28;20488;-65
2022/06/04 01:46:30;;;;;;;2.73;2.53;;;;;;;;;;5055049;28;20455;-64
2022/06/04 01:48:59;;;;;;;2.47;2.37;;;;;;;;;;5054827;28;20572;-65
2022/06/04 01:51:28;;;;;;;4.40;2.63;;;;;;;;;;5054780;28;20452;-64
2022/06/04 01:53:57;;;;;;;3.90;2.90;;;;;;;;;;5054606;28;20540;-65
2022/06/04 01:56:26;;;;;;;2.17;2.07;;;;;;;;;;5054878;28;20449;-65
2022/06/04 01:58:56;;;;;;;2.20;2.00;;;;;;;;;;5054575;28;21011;-65
2022/06/04 02:01:25;;;;;;;2.43;2.33;;;;;;;;;;5054782;28;20872;-65
2022/06/04 02:03:54;;;;;;;4.43;2.60;;;;;;;;;;5054814;28;20539;-64
2022/06/04 02:06:23;;;;;;;2.10;2.00;;;;;;;;;;5054475;28;20452;-65
2022/06/04 02:08:53;;;;;;;2.40;2.10;;;;;;;;;;5054839;28;20686;-65
2022/06/04 02:11:21;;;;;;;2.33;2.23;;;;;;;;;;5054728;28;20440;-65
2022/06/04 02:13:49;;;;;;;2.77;2.57;;;;;;;;;;5054578;28;20543;-65
2022/06/04 02:16:20;;;;;;;2.73;2.27;;;;;;;;;;5054341;28;20480;-65
2022/06/04 02:18:48;;;;;;;2.80;2.60;;;;;;;;;;5054193;28;20962;-64
2022/06/04 02:21:15;;;;;;;3.10;2.60;;;;;;;;;;5054375;28;20444;-65
2022/06/04 02:23:43;;;;;;;2.90;2.70;;;;;;;;;;5054318;28;20459;-64
2022/06/04 02:26:10;;;;;;;2.80;2.40;;;;;;;;;;5054254;28;20449;-65
2022/06/04 02:28:37;;;;;;;3.07;2.93;;;;;;;;;;5054043;28;20587;-65
2022/06/04 02:31:07;;;;;;;2.63;2.37;;;;;;;;;;5053602;28;20520;-65
2022/06/04 02:33:41;;;;;;;2.80;2.60;;;;;;;;;;5053537;28;20456;-65
2022/06/04 02:36:10;;;;;;;2.40;2.30;;;;;;;;;;5054120;28;20452;-65
2022/06/04 02:38:40;;;;;;;2.60;2.40;;;;;;;;;;5053974;28;20448;-65
2022/06/04 02:41:11;;;;;;;3.53;2.57;;;;;;;;;;5053952;28;20539;-65
2022/06/04 02:43:42;;;;;;;3.00;2.80;;;;;;;;;;5053688;28;21029;-65
2022/06/04 02:46:12;;;;;;;3.33;3.13;;;;;;;;;;5053722;28;20541;-64
2022/06/04 02:48:42;;;;;;;4.33;2.40;;;;;;;;;;5053811;28;20529;-65
2022/06/04 02:51:11;;;;;;;3.63;3.30;;;;;;;;;;5053820;28;20575;-65
2022/06/04 02:53:39;;;;;;;4.60;2.63;;;;;;;;;;5053622;28;20449;-65
2022/06/04 02:56:10;;;;;;;2.93;2.63;;;;;;;;;;5053649;28;20444;-65
2022/06/04 02:58:39;;;;;;;3.07;2.97;;;;;;;;;;5053427;28;20539;-65
2022/06/04 03:01:08;;;;;;;3.07;2.60;;;;;;;;;;5053636;28;20872;-65
2022/06/04 03:03:35;;;;;;;4.80;3.60;;;;;;;;;;5053591;28;20452;-65
2022/06/04 03:06:05;;;;;;;4.47;3.20;;;;;;;;;;5053477;28;20509;-64
2022/06/04 03:08:33;;;;;;;3.90;3.50;;;;;;;;;;5053287;28;20563;-65
2022/06/04 03:11:00;;;;;;;2.87;2.67;;;;;;;;;;5053251;28;20422;-65
2022/06/04 03:13:27;;;;;;;4.13;3.20;;;;;;;;;;5053513;28;20448;-65
2022/06/04 03:15:54;;;;;;;3.00;2.80;;;;;;;;;;5053368;28;20559;-65
2022/06/04 03:18:21;;;;;;;3.90;3.37;;;;;;;;;;5053475;28;20948;-65
2022/06/04 03:20:48;;;;;;;3.70;3.40;;;;;;;;;;5053346;28;20459;-64
2022/06/04 03:23:17;;;;;;;3.27;3.03;;;;;;;;;;5053263;28;20559;-65
2022/06/04 03:25:44;;;;;;;3.00;2.80;;;;;;;;;;5053158;28;20560;-65
2022/06/04 03:28:11;;;;;;;3.70;3.40;;;;;;;;;;5053128;28;20468;-64
2022/06/04 03:30:39;;;;;;;3.57;3.23;;;;;;;;;;5053167;28;20449;-65
2022/06/04 03:33:06;;;;;;;3.30;3.10;;;;;;;;;;5053075;28;20456;-65
2022/06/04 03:35:33;;;;;;;4.90;3.73;;;;;;;;;;5052992;28;20494;-65
2022/06/04 03:38:01;;;;;;;3.50;2.83;;;;;;;;;;5052888;28;20801;-65
2022/06/04 03:40:29;;;;;;;3.50;3.10;;;;;;;;;;5053077;28;20535;-64
2022/06/04 03:42:56;;;;;;;3.17;2.90;;;;;;;;;;5052638;28;20543;-65
2022/06/04 03:45:24;;;;;;;3.33;3.13;;;;;;;;;;5053001;28;20454;-64
2022/06/04 03:47:52;;;;;;;3.13;2.90;;;;;;;;;;5052823;28;20456;-65
2022/06/04 03:50:18;;;;;;;3.33;3.13;;;;;;;;;;5052813;28;20544;-65
2022/06/04 03:52:46;;;;;;;6.00;3.50;;;;;;;;;;5052735;28;20483;-65
2022/06/04 03:55:14;;;;;;;3.60;3.30;;;;;;;;;;5052973;28;20876;-65
2022/06/04 03:57:45;;;;;;;2.90;2.70;;;;;;;;;;5052835;28;20455;-64
2022/06/04 04:00:16;;;;;;;3.70;3.37;;;;;;;;;;5052999;28;20502;-64
2022/06/04 04:02:44;;;;;;;2.60;2.50;;;;;;;;;;5052741;28;20815;-64
2022/06/04 04:05:12;;;;;;;4.37;3.30;;;;;;;;;;5052606;28;20542;-64
2022/06/04 04:07:40;;;;;;;3.67;3.13;;;;;;;;;;5052844;28;20566;-64
2022/06/04 04:10:08;;;;;;;6.03;3.60;;;;;;;;;;5052696;28;20527;-65
2022/06/04 04:12:35;;;;;;;3.17;3.00;;;;;;;;;;5052731;28;20886;-64
2022/06/04 04:15:04;;;;;;;3.43;3.20;;;;;;;;;;5052592;28;20459;-65
2022/06/04 04:17:31;;;;;;;2.93;2.73;;;;;;;;;;5052751;28;20455;-64
2022/06/04 04:19:58;;;;;;;4.40;3.13;;;;;;;;;;5052540;28;20958;-64
2022/06/04 04:22:25;;;;;;;3.97;3.67;;;;;;;;;;5052667;28;20449;-64
2022/06/04 04:24:52;;;;;;;3.43;3.23;;;;;;;;;;5052655;28;20815;-65
2022/06/04 04:27:19;;;;;;;5.23;3.27;;;;;;;;;;5052568;28;20458;-64
2022/06/04 04:29:46;;;;;;;3.33;3.13;;;;;;;;;;5052463;28;20484;-64
2022/06/04 04:32:14;;;;;;;3.73;3.30;;;;;;;;;;5052388;28;20454;-64
2022/06/04 04:34:41;;;;;;;3.40;3.07;;;;;;;;;;5052644;28;20866;-64
2022/06/04 04:37:08;;;;;;;3.63;3.33;;;;;;;;;;5052563;28;20444;-64
2022/06/04 04:39:35;;;;;;;3.30;3.10;;;;;;;;;;5052457;28;20444;-64
2022/06/04 04:42:02;;;;;;;3.97;3.47;;;;;;;;;;5052441;28;20448;-64
2022/06/04 04:44:30;;;;;;;3.47;3.23;;;;;;;;;;5052120;28;20483;-64
2022/06/04 04:46:57;;;;;;;3.27;3.00;;;;;;;;;;5052291;28;21028;-64
2022/06/04 04:49:25;;;;;;;3.50;3.20;;;;;;;;;;5052402;28;20483;-64
2022/06/04 04:51:52;;;;;;;4.57;3.30;;;;;;;;;;5052496;28;20448;-64
2022/06/04 04:54:19;;;;;;;6.10;3.20;;;;;;;;;;5052342;28;20448;-64
2022/06/04 04:56:46;;;;;;;4.20;2.67;;;;;;;;;;5055709;28;20857;-64
2022/06/04 04:59:13;;;;;;;2.67;2.47;;;;;;;;;;5055757;28;20800;-64
2022/06/04 05:01:40;;;;;;;9.30;3.10;;;;;;;;;;5055933;28;20458;-64
2022/06/04 05:04:07;;;;;;;3.60;3.30;;;;;;;;;;5055880;28;20501;-64
2022/06/04 05:06:36;;;;;;;2.57;2.37;;;;;;;;;;5055863;28;20427;-64
2022/06/04 05:09:03;;;;;;;5.13;3.80;;;;;;;;;;5055579;28;20920;-64
2022/06/04 05:11:32;;;;;;;3.37;2.93;;;;;;;;;;5055599;28;20554;-64
2022/06/04 05:13:59;;;;;;;4.30;2.90;;;;;;;;;;5055474;28;20778;-64
2022/06/04 05:16:27;;;;;;;3.13;2.80;;;;;;;;;;5055644;28;20510;-64
2022/06/04 05:18:54;;;;;;;2.93;2.40;;;;;;;;;;5055799;28;20539;-64
2022/06/04 05:21:22;;;;;;;3.93;3.20;;;;;;;;;;5055442;28;20884;-64
2022/06/04 05:23:50;;;;;;;2.80;2.60;;;;;;;;;;5055381;28;20819;-64
2022/06/04 05:26:18;;;;;;;2.93;2.73;;;;;;;;;;5055243;28;20444;-64
2022/06/04 05:28:45;;;;;;;5.57;2.73;;;;;;;;;;5055349;28;20568;-64
2022/06/04 05:31:12;;;;;;;4.30;2.67;;;;;;;;;;5055321;28;20494;-64
2022/06/04 05:33:39;;;;;;;3.13;2.80;;;;;;;;;;5055304;28;20519;-64
2022/06/04 05:36:06;;;;;;;3.83;2.50;;;;;;;;;;5055303;28;20423;-64
2022/06/04 05:38:36;;;;;;;5.20;2.93;;;;;;;;;;5055129;28;20543;-64
2022/06/04 05:41:06;;;;;;;3.70;3.40;;;;;;;;;;5055353;28;20924;-64
2022/06/04 05:43:33;;;;;;;3.27;3.03;;;;;;;;;;5054991;28;20472;-64
2022/06/04 05:46:01;;;;;;;3.67;3.23;;;;;;;;;;5055131;28;20476;-64
2022/06/04 05:48:28;;;;;;;3.13;2.73;;;;;;;;;;5055056;28;21117;-64
2022/06/04 05:50:55;;;;;;;3.83;3.17;;;;;;;;;;5054909;28;21002;-64
2022/06/04 05:53:23;;;;;;;3.07;2.87;;;;;;;;;;5054992;28;20452;-64
2022/06/04 05:55:50;;;;;;;3.10;2.77;;;;;;;;;;5054602;28;20447;-64
2022/06/04 05:58:18;;;;;;;2.83;2.50;;;;;;;;;;5054656;28;20964;-64
2022/06/04 06:00:45;;;;;;;3.30;2.80;;;;;;;;;;5054703;28;20543;-64
2022/06/04 06:03:12;;;;;;;3.10;2.90;;;;;;;;;;5054667;28;20448;-64
2022/06/04 06:05:42;;;;;;;3.40;3.10;;;;;;;;;;5054459;28;20839;-64
2022/06/04 06:08:09;;;;;;;3.33;3.13;;;;;;;;;;5054427;28;20479;-64
2022/06/04 06:10:39;;;;;;;4.67;3.43;;;;;;;;;;5054538;28;20480;-64
2022/06/04 06:13:06;;;;;;;3.10;2.90;;;;;;;;;;5054556;28;20559;-64
2022/06/04 06:15:35;;;;;;;3.07;2.87;;;;;;;;;;5054289;28;20517;-64
2022/06/04 06:18:02;;;;;;;5.43;3.47;;;;;;;;;;5054313;28;20518;-64
2022/06/04 06:20:29;;;;;;;3.20;3.00;;;;;;;;;;5054218;28;20462;-64
2022/06/04 06:22:56;;;;;;;5.00;3.30;;;;;;;;;;5054492;28;20466;-65
2022/06/04 06:25:23;;;;;;;4.23;2.87;;;;;;;;;;5054368;28;20448;-64
2022/06/04 06:27:50;;;;;;;3.83;2.80;;;;;;;;;;5054264;28;20452;-64
2022/06/04 06:30:17;;;;;;;3.40;2.60;;;;;;;;;;5053897;28;21011;-64
2022/06/04 06:32:46;;;;;;;6.57;3.07;;;;;;;;;;5053931;28;20448;-64
2022/06/04 06:35:13;;;;;;;4.73;3.37;;;;;;;;;;5053853;28;20463;-64
2022/06/04 06:37:40;;;;;;;3.20;2.67;;;;;;;;;;5054064;28;20535;-64
2022/06/04 06:40:08;;;;;;;3.00;2.80;;;;;;;;;;5053995;28;20452;-65
2022/06/04 06:42:35;;;;;;;11.40;7.23;;;;;;;;;;5053836;28;20479;-64
2022/06/04 06:45:02;;;;;;;3.67;3.37;;;;;;;;;;5053545;28;20901;-64
2022/06/04 06:47:29;;;;;;;4.10;3.80;;;;;;;;;;5053878;28;21027;-64
2022/06/04 06:49:57;;;;;;;4.23;3.83;;;;;;;;;;5053770;28;20491;-64
2022/06/04 06:52:24;;;;;;;3.00;2.80;;;;;;;;;;5053830;28;20449;-64
2022/06/04 06:54:51;;;;;;;3.20;3.00;;;;;;;;;;5053692;28;20539;-64
2022/06/04 06:57:18;;;;;;;3.93;3.50;;;;;;;;;;5053589;28;20452;-64
2022/06/04 06:59:47;;;;;;;5.40;4.13;;;;;;;;;;5053495;28;21006;-65
2022/06/04 07:02:14;;;;;;;5.73;4.97;;;;;;;;;;5053449;28;20472;-65
2022/06/04 07:04:41;;;;;;;5.17;3.23;;;;;;;;;;5053485;28;20535;-64
2022/06/04 07:07:09;;;;;;;5.50;2.80;;;;;;;;;;5053481;28;20883;-65
2022/06/04 07:09:37;;;;;;;4.10;3.10;;;;;;;;;;5053128;28;20483;-64
2022/06/04 07:12:05;;;;;;;3.13;2.83;;;;;;;;;;5053326;28;20444;-64
2022/06/04 07:14:32;;;;;;;3.23;3.03;;;;;;;;;;5053223;28;20855;-65
2022/06/04 07:16:59;;;;;;;4.20;2.70;;;;;;;;;;5053102;28;20476;-64
2022/06/04 07:19:26;;;;;;;3.20;2.70;;;;;;;;;;5052945;28;20491;-64
2022/06/04 07:21:55;;;;;;;2.90;2.70;;;;;;;;;;5053175;28;20444;-65
2022/06/04 07:24:23;;;;;;;5.00;4.03;;;;;;;;;;5053121;28;20448;-64
2022/06/04 07:26:50;;;;;;;3.13;2.93;;;;;;;;;;5053122;28;20535;-64
2022/06/04 07:29:18;;;;;;;3.17;2.87;;;;;;;;;;5052862;28;20472;-64
2022/06/04 07:31:45;;;;;;;3.60;3.00;;;;;;;;;;5053182;28;20448;-65
2022/06/04 07:34:12;;;;;;;8.43;3.30;;;;;;;;;;5052997;28;20452;-65
2022/06/04 07:36:40;;;;;;;5.23;4.60;;;;;;;;;;5052892;28;20966;-65
2022/06/04 07:39:08;;;;;;;5.30;3.30;;;;;;;;;;5053079;28;20454;-65
2022/06/04 07:41:38;;;;;;;11.70;6.23;;;;;;;;;;5052840;28;20475;-65
2022/06/04 07:44:06;;;;;;;4.10;3.50;;;;;;;;;;5052696;28;20477;-65
2022/06/04 07:46:33;;;;;;;4.20;3.90;;;;;;;;;;5052930;28;20455;-65
2022/06/04 07:49:00;;;;;;;3.90;3.30;;;;;;;;;;5052754;28;20454;-65
2022/06/04 07:51:28;;;;;;;5.17;3.00;;;;;;;;;;5052838;28;20460;-65
2022/06/04 07:53:55;;;;;;;3.20;3.00;;;;;;;;;;5052830;28;20539;-64
2022/06/04 07:56:22;;;;;;;10.30;5.40;;;;;;;;;;5052569;28;20725;-65
2022/06/04 07:58:51;;;;;;;6.00;4.50;;;;;;;;;;5052872;28;20459;-65
2022/06/04 08:01:19;;;;;;;10.23;7.17;;;;;;;;;;5052850;28;20458;-65
2022/06/04 08:03:47;;;;;;;5.30;4.40;;;;;;;;;;5052714;28;20449;-65
2022/06/04 08:06:17;;;;;;;3.33;2.73;;;;;;;;;;5052918;28;20451;-65
2022/06/04 08:08:46;;;;;;;3.93;2.77;;;;;;;;;;5052648;28;20445;-65
2022/06/04 08:13:58;;;;;;;4.20;3.90;;;;;;;;;;5052847;28;20943;-65
2022/06/04 08:16:25;;;;;;;4.77;4.37;;;;;;;;;;5052634;28;20474;-65
2022/06/04 08:18:52;;;;;;;3.00;2.80;;;;;;;;;;5052426;28;20448;-65
2022/06/04 08:21:19;;;;;;;2.80;2.60;;;;;;;;;;5052443;28;20543;-65
2022/06/04 08:23:46;;;;;;;6.00;3.93;;;;;;;;;;5052580;28;20531;-65
2022/06/04 08:26:13;;;;;;;4.70;4.30;;;;;;;;;;5052667;28;20451;-64
2022/06/04 08:28:40;;;;;;;4.53;3.63;;;;;;;;;;5052625;28;20487;-65
2022/06/04 08:31:09;;;;;;;4.27;3.83;;;;;;;;;;5055063;28;20604;-65
2022/06/04 08:33:37;;;;;;;7.73;3.80;;;;;;;;;;5056506;28;20979;-65
2022/06/04 08:36:04;;;;;;;6.13;4.00;;;;;;;;;;5056104;28;20466;-65
2022/06/04 08:38:31;;;;;;;4.10;3.00;;;;;;;;;;5056246;28;20495;-64
2022/06/04 08:41:00;;;;;;;4.43;4.10;;;;;;;;;;5056249;28;20789;-65
2022/06/04 08:43:33;;;;;;;6.83;3.03;;;;;;;;;;5055973;28;20813;-65
2022/06/04 08:46:00;;;;;;;5.40;2.97;;;;;;;;;;5056040;28;20460;-64
2022/06/04 08:48:30;;;;;;;5.47;3.17;;;;;;;;;;5055989;28;20546;-65
2022/06/04 08:50:57;;;;;;;8.37;5.93;;;;;;;;;;5056080;28;20502;-65
2022/06/04 08:53:26;;;;;;;4.63;4.00;;;;;;;;;;5055815;28;21010;-64
2022/06/04 08:58:50;;;;;;;3.97;3.00;;;;;;;;;;5055842;28;20594;-65
2022/06/04 09:01:20;;;;;;;6.23;3.73;;;;;;;;;;5055994;28;20589;-65
2022/06/04 09:03:53;;;;;;;6.43;3.80;;;;;;;;;;5055798;28;21044;-64
2022/06/04 09:06:24;;;;;;;3.00;2.80;;;;;;;;;;5055743;28;20449;-64
2022/06/04 09:08:53;;;;;;;2.80;2.60;;;;;;;;;;5055600;28;20458;-65
2022/06/04 09:11:24;;;;;;;3.40;3.00;;;;;;;;;;5055324;28;20480;-65
2022/06/04 09:14:02;;;;;;;6.33;2.90;;;;;;;;;;5055782;28;20448;-65
2022/06/04 09:16:30;;;;;;;3.60;3.30;;;;;;;;;;5055395;28;20971;-65
2022/06/04 09:19:00;;;;;;;4.13;3.73;;;;;;;;;;5055466;28;20444;-65
2022/06/04 09:21:29;;;;;;;3.50;3.20;;;;;;;;;;5055567;28;20467;-64
2022/06/04 09:23:56;;;;;;;4.30;4.00;;;;;;;;;;5055206;28;20506;-65
2022/06/04 09:26:28;;;;;;;2.47;2.37;;;;;;;;;;5055243;28;20542;-65
2022/06/04 09:28:59;;;;;;;2.40;2.20;;;;;;;;;;5055474;28;20475;-65
2022/06/04 09:31:30;;;;;;;2.70;2.50;;;;;;;;;;5055141;28;20583;-65
2022/06/04 09:34:00;;;;;;;2.93;2.73;;;;;;;;;;5055068;28;20448;-65
2022/06/04 09:36:28;;;;;;;2.70;2.40;;;;;;;;;;5054950;28;20506;-64
2022/06/04 09:38:57;;;;;;;2.70;2.50;;;;;;;;;;5054987;28;20452;-64
2022/06/04 09:41:25;;;;;;;2.63;2.43;;;;;;;;;;5054330;28;20449;-64
2022/06/04 09:44:04;;;;;;;2.83;2.43;;;;;;;;;;5054633;28;20534;-64
2022/06/04 09:46:30;;;;;;;2.80;2.60;;;;;;;;;;5054829;28;20499;-65
2022/06/04 09:49:01;;;;;;;2.93;2.70;;;;;;;;;;5054527;28;20491;-64
2022/06/04 09:51:29;;;;;;;2.47;2.20;;;;;;;;;;5054880;28;20480;-64
2022/06/04 09:53:58;;;;;;;2.53;2.33;;;;;;;;;;5054861;28;20455;-64
2022/06/04 09:56:32;;;;;;;2.70;2.50;;;;;;;;;;5054561;28;20544;-64
2022/06/04 09:59:08;;;;;;;4.30;2.37;;;;;;;;;;5054618;28;20455;-64
2022/06/04 10:01:34;;;;;;;2.77;2.60;;;;;;;;;;5054660;28;20478;-65
2022/06/04 10:04:11;;;;;;;5.17;2.73;;;;;;;;;;5054491;28;20535;-64
2022/06/04 10:06:38;;;;;;;2.87;2.30;;;;;;;;;;5054466;28;20462;-64
2022/06/04 10:11:59;;;;;;;5.00;4.27;;;;;;;;;;5054136;28;20986;-65
2022/06/04 10:14:31;;;;;;;3.70;3.40;;;;;;;;;;5054227;28;20462;-64
2022/06/04 10:16:59;;;;;;;9.50;5.93;;;;;;;;;;5054205;28;20460;-64
2022/06/04 10:19:27;;;;;;;3.30;2.70;;;;;;;;;;5054283;28;20539;-65
2022/06/04 10:22:04;;;;;;;10.20;4.30;;;;;;;;;;5054092;28;20452;-64
2022/06/04 10:24:37;;;;;;;7.33;4.03;;;;;;;;;;5053955;28;20538;-65
2022/06/04 10:27:22;;;;;;;4.37;3.97;;;;;;;;;;5053929;28;20535;-64
2022/06/04 10:29:58;;;;;;;5.67;3.93;;;;;;;;;;5053967;28;20480;-65
2022/06/04 10:32:30;;;;;;;6.83;2.97;;;;;;;;;;5053738;28;20459;-65
2022/06/04 10:35:03;;;;;;;5.50;3.93;;;;;;;;;;5054132;28;20877;-65
2022/06/04 10:37:34;;;;;;;4.23;3.80;;;;;;;;;;5053984;28;20807;-65
2022/06/04 10:40:12;;;;;;;4.93;3.70;;;;;;;;;;5053943;28;20460;-65
2022/06/04 10:42:46;;;;;;;2.57;2.40;;;;;;;;;;5053689;28;20907;-65
2022/06/04 10:45:17;;;;;;;2.43;2.33;;;;;;;;;;5053392;28;20486;-65
2022/06/04 10:47:47;;;;;;;4.03;2.40;;;;;;;;;;5053531;28;20542;-64
2022/06/04 10:50:21;;;;;;;3.30;3.10;;;;;;;;;;5053551;28;20559;-65
2022/06/04 10:52:52;;;;;;;4.63;3.57;;;;;;;;;;5052558;28;20484;-65
2022/06/04 10:55:24;;;;;;;5.70;3.13;;;;;;;;;;5053384;28;20632;-65
2022/06/04 10:57:55;;;;;;;4.53;3.40;;;;;;;;;;5053068;28;20539;-64
2022/06/04 11:00:23;;;;;;;2.63;2.47;;;;;;;;;;5053305;28;20464;-65
2022/06/04 11:02:54;;;;;;;5.10;4.60;;;;;;;;;;5053038;28;20457;-65
2022/06/04 11:05:24;;;;;;;2.40;2.30;;;;;;;;;;5052779;28;20839;-65
2022/06/04 11:07:53;;;;;;;2.13;1.93;;;;;;;;;;5052838;28;20527;-64
2022/06/04 11:10:23;;;;;;;3.00;2.70;;;;;;;;;;5052942;28;20479;-64
2022/06/04 11:12:53;;;;;;;2.10;2.00;;;;;;;;;;5053206;28;20544;-65
2022/06/04 11:15:22;;;;;;;4.10;3.00;;;;;;;;;;5053166;28;20543;-64
2022/06/04 11:17:52;;;;;;;2.50;2.30;;;;;;;;;;5053027;28;20445;-64
2022/06/04 11:20:20;;;;;;;3.60;2.23;;;;;;;;;;5052928;28;20535;-65
2022/06/04 11:22:52;;;;;;;2.70;2.50;;;;;;;;;;5052993;28;20448;-65
2022/06/04 11:25:24;;;;;;;2.07;1.97;;;;;;;;;;5052963;28;20854;-64
2022/06/04 11:27:52;;;;;;;9.53;8.73;;;;;;;;;;5052532;28;20790;-64
2022/06/04 11:30:22;;;;;;;2.67;2.47;;;;;;;;;;5052855;28;20543;-65
2022/06/04 11:32:52;;;;;;;3.13;2.30;;;;;;;;;;5052488;28;20778;-65
2022/06/04 11:35:24;;;;;;;3.40;2.03;;;;;;;;;;5052886;28;20452;-65
2022/06/04 11:38:08;;;;;;;2.27;2.07;;;;;;;;;;5052676;28;21040;-65
2022/06/04 11:40:38;;;;;;;1.90;1.80;;;;;;;;;;5052598;28;20944;-65
2022/06/04 11:43:10;;;;;;;3.23;1.50;;;;;;;;;;5052265;28;20480;-65
2022/06/04 11:45:40;;;;;;;2.37;2.27;;;;;;;;;;5052527;28;20539;-65
2022/06/04 11:48:13;;;;;;;2.47;2.27;;;;;;;;;;5052479;28;20467;-65
2022/06/04 11:50:46;;;;;;;3.70;1.83;;;;;;;;;;5052369;28;20507;-65
2022/06/04 11:53:20;;;;;;;2.37;2.17;;;;;;;;;;5052481;28;20827;-65
2022/06/04 11:55:52;;;;;;;2.00;1.80;;;;;;;;;;5052386;28;20947;-65
2022/06/04 11:58:34;;;;;;;2.30;2.20;;;;;;;;;;5052829;28;20873;-65
2022/06/04 12:01:03;;;;;;;3.60;3.30;;;;;;;;;;5052794;28;20448;-65
2022/06/04 12:03:32;;;;;;;2.70;2.00;;;;;;;;;;5052600;28;20938;-65
2022/06/04 12:06:02;;;;;;;2.73;2.20;;;;;;;;;;5056683;28;20456;-65
2022/06/04 12:08:32;;;;;;;1.73;1.60;;;;;;;;;;5056483;28;20476;-65
2022/06/04 12:11:12;;;;;;;1.67;1.57;;;;;;;;;;5056620;28;20558;-65
2022/06/04 12:13:45;;;;;;;3.40;2.20;;;;;;;;;;5056228;28;20456;-65
2022/06/04 12:16:13;;;;;;;2.10;1.90;;;;;;;;;;5056466;28;20518;-65
2022/06/04 12:18:43;;;;;;;3.10;1.90;;;;;;;;;;5056345;28;20487;-65
2022/06/04 12:24:19;;;;;;;2.27;1.87;;;;;;;;;;5056130;28;20582;-65
2022/06/04 12:26:47;;;;;;;2.93;1.90;;;;;;;;;;5056358;28;20927;-64
2022/06/04 12:29:25;;;;;;;2.03;1.93;;;;;;;;;;5055770;28;20510;-64
2022/06/04 12:31:57;;;;;;;2.40;2.20;;;;;;;;;;5055974;28;20541;-65
2022/06/04 12:34:26;;;;;;;2.63;2.10;;;;;;;;;;5056016;28;20458;-64
2022/06/04 12:36:54;;;;;;;2.40;2.30;;;;;;;;;;5055719;28;20955;-65
2022/06/04 12:39:23;;;;;;;2.47;1.83;;;;;;;;;;5055836;28;20534;-65
2022/06/04 12:41:52;;;;;;;2.30;2.10;;;;;;;;;;5055787;28;20448;-65
2022/06/04 12:44:22;;;;;;;3.03;1.80;;;;;;;;;;5055496;28;20630;-65
2022/06/04 12:46:49;;;;;;;1.90;1.80;;;;;;;;;;5055903;28;20448;-65
2022/06/04 12:49:22;;;;;;;3.20;2.30;;;;;;;;;;5055769;28;20484;-65
2022/06/04 12:51:51;;;;;;;3.43;2.10;;;;;;;;;;5055413;28;20502;-65
2022/06/04 12:54:20;;;;;;;3.17;2.70;;;;;;;;;;5055512;28;20476;-65
2022/06/04 12:56:54;;;;;;;2.60;2.40;;;;;;;;;;5055479;28;20876;-65
2022/06/04 12:59:26;;;;;;;2.10;2.00;;;;;;;;;;5055544;28;20529;-65
2022/06/04 13:01:53;;;;;;;3.43;2.30;;;;;;;;;;5055509;28;20773;-65
2022/06/04 13:04:22;;;;;;;3.13;2.40;;;;;;;;;;5055252;28;20570;-65
2022/06/04 13:06:50;;;;;;;2.67;2.07;;;;;;;;;;5054985;28;20534;-65
2022/06/04 13:09:23;;;;;;;4.17;2.10;;;;;;;;;;5055395;28;20777;-65
2022/06/04 13:11:59;;;;;;;2.00;1.90;;;;;;;;;;5055029;28;20880;-65
2022/06/04 13:14:30;;;;;;;2.60;2.40;;;;;;;;;;5055225;28;20452;-65
2022/06/04 13:16:57;;;;;;;1.90;1.80;;;;;;;;;;5054196;28;20543;-65
2022/06/04 13:19:41;;;;;;;2.50;2.03;;;;;;;;;;5055022;28;20536;-65
2022/06/04 13:22:13;;;;;;;2.50;2.27;;;;;;;;;;5055208;28;20973;-65
2022/06/04 13:24:41;;;;;;;2.63;2.43;;;;;;;;;;5055346;28;20538;-65
2022/06/04 13:27:13;;;;;;;2.90;2.10;;;;;;;;;;5055067;28;20536;-65
2022/06/04 13:29:40;;;;;;;3.40;2.00;;;;;;;;;;5054794;28;20506;-65
2022/06/04 13:32:14;;;;;;;6.10;3.30;;;;;;;;;;5054664;28;20480;-65
2022/06/04 13:34:41;;;;;;;2.07;1.97;;;;;;;;;;5054864;28;20535;-65
2022/06/04 13:37:09;;;;;;;2.80;2.27;;;;;;;;;;5054691;28;20870;-65
2022/06/04 13:39:37;;;;;;;2.00;1.70;;;;;;;;;;5054666;28;20436;-65
2022/06/04 13:42:14;;;;;;;3.47;2.20;;;;;;;;;;5054390;28;20479;-65
2022/06/04 13:44:42;;;;;;;2.50;2.30;;;;;;;;;;5054545;28;20571;-65
2022/06/04 13:47:14;;;;;;;3.90;2.40;;;;;;;;;;5054664;28;20441;-64
2022/06/04 13:49:42;;;;;;;11.60;2.90;;;;;;;;;;5054696;28;20815;-65
2022/06/04 13:52:11;;;;;;;7.10;3.83;;;;;;;;;;5054280;28;20487;-65
2022/06/04 13:54:40;;;;;;;2.57;2.47;;;;;;;;;;5054450;28;20515;-65
2022/06/04 13:57:15;;;;;;;3.23;2.90;;;;;;;;;;5054610;28;20498;-65
2022/06/04 13:59:45;;;;;;;2.77;2.37;;;;;;;;;;5054512;28;20447;-65
2022/06/04 14:02:15;;;;;;;2.93;2.73;;;;;;;;;;5054346;28;20543;-65
2022/06/04 14:07:32;;;;;;;4.67;3.23;;;;;;;;;;5053948;28;20451;-65
2022/06/04 14:09:59;;;;;;;6.17;2.90;;;;;;;;;;5054032;28;20535;-65
2022/06/04 14:12:32;;;;;;;5.53;2.70;;;;;;;;;;5053974;28;20483;-65
2022/06/04 14:15:07;;;;;;;3.60;2.63;;;;;;;;;;5054198;28;20983;-65
2022/06/04 14:17:42;;;;;;;3.30;3.10;;;;;;;;;;5054024;28;20830;-65
2022/06/04 14:20:16;;;;;;;2.90;2.70;;;;;;;;;;5054195;28;20535;-65
2022/06/04 14:22:51;;;;;;;2.50;2.30;;;;;;;;;;5054006;28;20530;-65
2022/06/04 14:25:22;;;;;;;5.23;2.30;;;;;;;;;;5053659;28;20505;-65
2022/06/04 14:27:54;;;;;;;2.10;2.00;;;;;;;;;;5053728;28;20455;-65
2022/06/04 14:30:24;;;;;;;4.23;2.87;;;;;;;;;;5053805;28;20535;-65
2022/06/04 14:32:52;;;;;;;2.50;2.30;;;;;;;;;;5053691;28;20895;-65
2022/06/04 14:35:20;;;;;;;2.40;2.20;;;;;;;;;;5053422;28;20495;-65
2022/06/04 14:37:48;;;;;;;2.30;2.20;;;;;;;;;;5053291;28;20547;-65
2022/06/04 14:40:16;;;;;;;1.83;1.73;;;;;;;;;;5052867;28;20444;-65
2022/06/04 14:43:08;;;;;;;2.70;2.47;;;;;;;;;;5052808;28;20448;-65
2022/06/04 14:45:41;;;;;;;2.70;2.33;;;;;;;;;;5053029;28;20535;-65
2022/06/04 14:48:30;;;;;;;2.60;2.40;;;;;;;;;;5052740;28;20455;-65
2022/06/04 14:51:02;;;;;;;2.47;2.23;;;;;;;;;;5052756;28;20498;-65
2022/06/04 14:53:29;;;;;;;4.17;2.50;;;;;;;;;;5053219;28;20519;-65
2022/06/04 14:56:12;;;;;;;2.70;2.33;;;;;;;;;;5053031;28;20475;-65
2022/06/04 14:58:49;;;;;;;3.13;2.80;;;;;;;;;;5052984;28;20531;-65
2022/06/04 15:01:34;;;;;;;2.20;2.00;;;;;;;;;;5052810;28;20447;-65
2022/06/04 15:04:19;;;;;;;3.10;2.23;;;;;;;;;;5052761;28;20539;-64
2022/06/04 15:06:54;;;;;;;2.20;2.03;;;;;;;;;;5053059;28;20483;-65
2022/06/04 15:09:37;;;;;;;3.43;3.13;;;;;;;;;;5053170;28;20447;-65
2022/06/04 15:12:10;;;;;;;4.37;2.07;;;;;;;;;;5052707;28;20470;-65
2022/06/04 15:14:44;;;;;;;2.50;2.30;;;;;;;;;;5052810;28;20452;-65
2022/06/04 15:17:21;;;;;;;1.90;1.80;;;;;;;;;;5053092;28;20547;-65